Etusivu
METAR-TAF:

METAR-TAF

Lentoasemat :

Caracas, Venezuela

Leveyspiiri: 10-36N, Pituuspiiri: 066-59W, korkeus merenpinnasta: 43 m

Tämänhetkinen sää

Tämä raportti tehtiin 32 minuuttia sitten, kello 22.00 UTC
Tuuli 2 kn idästä/koillisesta
Lämpötila 31°C
Kosteus 66%
Ilmanpaine 1008 hPa
Näkyvyys 10 km tai enemmän
Hajanaisia pilviä 1600 ft:n korkeudessa

METAR: SVMI 192200Z 07002KT 9999 SCT016 31/24 Q1008

Aika: 18:32 (22:32 UTC)

Sääennuste

Tämä raportti tehtiin 6 tuntia ja 32 minuuttia sitten, kello 16.00 UTC
Ennuste voimassa 19. päivästä klo 18 UTC - 20. päivään klo 18 UTC
Tuuli 8 kn luoteesta
Näkyvyys 10 km tai enemmän
Hajanaisia pilviä 1600 ft:n korkeudessa
Tulossa
19. päivästä klo 18 UTC - 19. päivään klo 22 UTC
Tuuli 10 kn idästä
Näkyvyys: 9000 m
Hajonneita pilviä 1600 ft:n korkeudessa
heikkoa tihkusadetta

TAF: SVMI 191600Z 1918/2018 31008KT 9999 SCT016 TX32/18Z TN25/09Z BECMG 1918/1922 09010KT 9000 -DZ BKN016

Säähavainnot ja -ennusteet yli 4000 lentoasemalta (METAR- ja TAF-raportit).

Käytössä olevat sääasemat on merkitty karttaan keltaisilla ja punaisilla pisteillä.

Aseta hiiri pisteen päälle nähdäksesi sääaseman nimen.

Klikkaa sitten nähdäksesi säähavainnot ja -ennusteet.

Kartan vaihtaminen: klikkaa mustalla rastilla varustettuja vihreitä pisteitä, niin voit zoomata sisään; viivalla varustettua vihreää pistettä, niin voit zoomata ulos tai vihreitä nuolia, niin pääset viereisille kartoille.


METAR-TAF: